createdAt,value
2018-09-20T00:00:43.751Z,1010.06
2018-09-20T00:02:37.083Z,1010.08
2018-09-20T00:03:37.030Z,1010.03
2018-09-20T00:05:30.344Z,1010.04
2018-09-20T00:06:30.314Z,1009.98
2018-09-20T00:08:23.635Z,1009.97
2018-09-20T00:09:23.592Z,1009.97
2018-09-20T00:11:16.915Z,1009.96
2018-09-20T00:12:16.879Z,1009.96
2018-09-20T00:14:10.205Z,1009.95
2018-09-20T00:15:10.159Z,1009.90
2018-09-20T00:17:03.479Z,1009.85
2018-09-20T00:18:03.426Z,1009.90
2018-09-20T00:19:56.744Z,1009.82
2018-09-20T00:20:56.706Z,1009.81
2018-09-20T00:22:50.029Z,1009.79
2018-09-20T00:23:49.984Z,1009.80
2018-09-20T00:25:43.295Z,1009.83
2018-09-20T00:26:43.261Z,1009.84
2018-09-20T00:28:36.658Z,1009.84
2018-09-20T00:29:36.537Z,1009.85
2018-09-20T00:31:29.880Z,1009.84
2018-09-20T00:32:29.836Z,1009.86
2018-09-20T00:34:23.159Z,1009.87
2018-09-20T00:35:23.109Z,1009.88
2018-09-20T00:37:16.424Z,1009.89
2018-09-20T00:38:16.409Z,1009.86
2018-09-20T00:40:09.704Z,1009.79
2018-09-20T00:41:09.664Z,1009.78
2018-09-20T00:43:02.989Z,1009.81
2018-09-20T00:44:02.936Z,1009.81
2018-09-20T00:45:56.287Z,1009.81
2018-09-20T00:46:56.241Z,1009.80
2018-09-20T00:48:49.561Z,1009.76
2018-09-20T00:49:49.506Z,1009.69
2018-09-20T00:51:42.817Z,1009.72
2018-09-20T00:52:42.784Z,1009.69
2018-09-20T00:54:36.112Z,1009.70
2018-09-20T00:55:36.069Z,1009.71
2018-09-20T00:57:29.367Z,1009.75
2018-09-20T00:58:29.336Z,1009.68
2018-09-20T01:00:22.653Z,1009.68
2018-09-20T01:01:22.607Z,1009.65
2018-09-20T01:03:15.926Z,1009.66
2018-09-20T01:04:15.892Z,1009.69
2018-09-20T01:06:09.217Z,1009.70
2018-09-20T01:07:09.165Z,1009.68
2018-09-20T01:09:02.462Z,1009.70
2018-09-20T01:10:02.436Z,1009.75
2018-09-20T01:11:55.759Z,1009.77
2018-09-20T01:12:55.725Z,1009.76
2018-09-20T01:14:49.055Z,1009.77
2018-09-20T01:15:48.986Z,1009.78
2018-09-20T01:17:42.292Z,1009.79
2018-09-20T01:18:42.253Z,1009.80
2018-09-20T01:20:35.572Z,1009.79
2018-09-20T01:21:35.530Z,1009.77
2018-09-20T01:23:28.837Z,1009.78
2018-09-20T01:24:28.812Z,1009.75
2018-09-20T01:26:22.123Z,1009.74
2018-09-20T01:27:22.069Z,1009.70
2018-09-20T01:29:15.397Z,1009.71
2018-09-20T01:30:15.352Z,1009.74
2018-09-20T01:32:08.673Z,1009.76
2018-09-20T01:33:08.616Z,1009.72
2018-09-20T01:35:01.951Z,1009.76
2018-09-20T01:36:01.898Z,1009.77
2018-09-20T01:37:55.209Z,1009.74
2018-09-20T01:38:55.168Z,1009.76
2018-09-20T01:40:48.496Z,1009.76
2018-09-20T01:41:48.453Z,1009.74
2018-09-20T01:43:41.752Z,1009.71
2018-09-20T01:44:41.729Z,1009.70
2018-09-20T01:46:35.048Z,1009.74
2018-09-20T01:47:35.002Z,1009.70
2018-09-20T01:49:28.307Z,1009.73
2018-09-20T01:50:28.269Z,1009.70
2018-09-20T01:52:21.588Z,1009.68
2018-09-20T01:53:21.542Z,1009.69
2018-09-20T01:55:14.858Z,1009.71
2018-09-20T01:56:14.818Z,1009.72
2018-09-20T01:58:08.253Z,1009.75
2018-09-20T01:59:08.117Z,1009.72
2018-09-20T02:01:01.399Z,1009.71
2018-09-20T02:02:01.382Z,1009.72
2018-09-20T02:03:54.688Z,1009.76
2018-09-20T02:04:54.689Z,1009.79
2018-09-20T02:06:47.968Z,1009.80
2018-09-20T02:07:47.924Z,1009.81
2018-09-20T02:09:41.225Z,1009.84
2018-09-20T02:10:41.199Z,1009.82
2018-09-20T02:12:34.519Z,1009.81
2018-09-20T02:13:34.476Z,1009.82
2018-09-20T02:15:27.798Z,1009.85
2018-09-20T02:16:27.755Z,1009.88
2018-09-20T02:18:21.075Z,1009.88
2018-09-20T02:19:21.030Z,1009.92
2018-09-20T02:21:14.336Z,1009.91
2018-09-20T02:22:14.304Z,1009.95
2018-09-20T02:24:07.626Z,1009.97
2018-09-20T02:25:07.575Z,1009.98
2018-09-20T02:27:00.909Z,1009.96
2018-09-20T02:28:00.862Z,1009.95
2018-09-20T02:29:54.165Z,1009.94
2018-09-20T02:30:54.135Z,1009.87
2018-09-20T02:32:47.574Z,1009.88
2018-09-20T02:33:47.405Z,1009.89
2018-09-20T02:35:40.724Z,1009.94
2018-09-20T02:36:40.686Z,1009.93
2018-09-20T02:38:34.022Z,1009.95
2018-09-20T02:39:33.965Z,1009.98
2018-09-20T02:41:27.277Z,1010.00
2018-09-20T02:42:27.243Z,1009.98
2018-09-20T02:44:20.565Z,1010.04
2018-09-20T02:45:20.503Z,1010.01
2018-09-20T02:47:13.825Z,1010.01
2018-09-20T02:48:13.801Z,1009.99
2018-09-20T02:50:07.112Z,1009.99
2018-09-20T02:51:07.067Z,1009.93
2018-09-20T02:53:00.378Z,1009.95
2018-09-20T02:54:00.341Z,1009.93
2018-09-20T02:55:53.681Z,1009.95
2018-09-20T02:56:53.619Z,1009.91
2018-09-20T02:58:46.976Z,1009.84
2018-09-20T02:59:46.893Z,1009.86
2018-09-20T03:01:40.196Z,1009.80
2018-09-20T03:02:40.176Z,1009.80
2018-09-20T03:04:33.468Z,1009.79
2018-09-20T03:05:33.432Z,1009.76
2018-09-20T03:07:26.751Z,1009.76
2018-09-20T03:08:26.701Z,1009.78
2018-09-20T03:10:20.037Z,1009.78
2018-09-20T03:11:19.992Z,1009.79
2018-09-20T03:13:13.307Z,1009.74
2018-09-20T03:14:13.278Z,1009.78
2018-09-20T03:16:06.584Z,1009.73
2018-09-20T03:17:06.553Z,1009.73
2018-09-20T03:18:59.863Z,1009.69
2018-09-20T03:19:59.827Z,1009.70
2018-09-20T03:21:53.153Z,1009.67
2018-09-20T03:22:53.106Z,1009.68
2018-09-20T03:24:46.441Z,1009.66
2018-09-20T03:25:46.372Z,1009.69
2018-09-20T03:27:39.696Z,1009.69
2018-09-20T03:28:39.662Z,1009.68
2018-09-20T03:30:33.033Z,1009.69
2018-09-20T03:31:32.946Z,1009.64
2018-09-20T03:33:26.257Z,1009.64
2018-09-20T03:34:26.203Z,1009.65
2018-09-20T03:36:19.523Z,1009.59
2018-09-20T03:37:19.502Z,1009.64
2018-09-20T03:39:12.798Z,1009.67
2018-09-20T03:40:12.759Z,1009.66
2018-09-20T03:42:06.064Z,1009.65
2018-09-20T03:43:06.024Z,1009.65
2018-09-20T03:44:59.341Z,1009.67
2018-09-20T03:45:59.296Z,1009.68
2018-09-20T03:47:52.102Z,1009.63
2018-09-20T03:48:52.069Z,1009.64
2018-09-20T03:50:45.404Z,1009.64
2018-09-20T03:51:45.363Z,1009.67
2018-09-20T03:53:38.669Z,1009.65
2018-09-20T03:54:38.658Z,1009.61
2018-09-20T03:56:31.950Z,1009.61
2018-09-20T03:57:31.909Z,1009.62
2018-09-20T03:59:25.218Z,1009.59
2018-09-20T04:00:25.174Z,1009.57
2018-09-20T04:02:18.503Z,1009.59
2018-09-20T04:03:18.459Z,1009.56
2018-09-20T04:05:11.792Z,1009.59
2018-09-20T04:06:11.763Z,1009.60
2018-09-20T04:08:05.078Z,1009.61
2018-09-20T04:09:05.028Z,1009.58
2018-09-20T04:10:58.363Z,1009.59
2018-09-20T04:11:58.328Z,1009.62
2018-09-20T04:13:51.645Z,1009.62
2018-09-20T04:14:51.582Z,1009.63
2018-09-20T04:16:44.430Z,1009.63
2018-09-20T04:17:44.379Z,1009.65
2018-09-20T04:19:37.678Z,1009.68
2018-09-20T04:20:37.640Z,1009.66
2018-09-20T04:22:30.463Z,1009.67
2018-09-20T04:23:30.414Z,1009.70
2018-09-20T04:25:23.724Z,1009.75
2018-09-20T04:26:23.693Z,1009.73
2018-09-20T04:28:17.021Z,1009.73
2018-09-20T04:29:16.966Z,1009.75
2018-09-20T04:31:09.794Z,1009.71
2018-09-20T04:32:09.742Z,1009.73
2018-09-20T04:34:03.057Z,1009.68
2018-09-20T04:35:03.004Z,1009.67
2018-09-20T04:36:56.333Z,1009.67
2018-09-20T04:37:56.279Z,1009.66
2018-09-20T04:39:49.576Z,1009.65
2018-09-20T04:40:49.546Z,1009.68
2018-09-20T04:42:42.862Z,1009.71
2018-09-20T04:43:42.824Z,1009.69
2018-09-20T04:45:36.131Z,1009.70
2018-09-20T04:46:36.097Z,1009.73
2018-09-20T04:48:29.401Z,1009.72
2018-09-20T04:49:29.354Z,1009.70
2018-09-20T04:51:22.170Z,1009.71
2018-09-20T04:52:22.130Z,1009.73
2018-09-20T04:54:15.462Z,1009.73
2018-09-20T04:55:15.407Z,1009.71
2018-09-20T04:57:08.248Z,1009.70
2018-09-20T04:58:08.189Z,1009.67
2018-09-20T05:00:01.577Z,1009.70
2018-09-20T05:01:01.470Z,1009.68
2018-09-20T05:02:54.287Z,1009.65
2018-09-20T05:03:54.251Z,1009.67
2018-09-20T05:05:47.552Z,1009.66
2018-09-20T05:06:47.506Z,1009.68
2018-09-20T05:08:40.839Z,1009.64
2018-09-20T05:09:40.781Z,1009.64
2018-09-20T05:11:33.602Z,1009.65
2018-09-20T05:12:33.566Z,1009.68
2018-09-20T05:14:26.386Z,1009.69
2018-09-20T05:15:26.341Z,1009.69
2018-09-20T05:17:19.646Z,1009.71
2018-09-20T05:18:19.611Z,1009.68
2018-09-20T05:20:13.015Z,1009.70
2018-09-20T05:21:12.961Z,1009.65
2018-09-20T05:23:06.251Z,1009.64
2018-09-20T05:24:06.211Z,1009.67
2018-09-20T05:25:59.513Z,1009.65
2018-09-20T05:26:59.477Z,1009.64
2018-09-20T05:28:52.793Z,1009.63
2018-09-20T05:29:52.736Z,1009.64
2018-09-20T05:31:46.052Z,1009.59
2018-09-20T05:32:46.012Z,1009.57
2018-09-20T05:34:39.339Z,1009.59
2018-09-20T05:35:39.325Z,1009.56
2018-09-20T05:37:32.599Z,1009.60
2018-09-20T05:38:32.573Z,1009.63
2018-09-20T05:40:25.402Z,1009.64
2018-09-20T05:41:25.357Z,1009.63
2018-09-20T05:43:18.664Z,1009.64
2018-09-20T05:44:18.623Z,1009.63
2018-09-20T05:46:11.939Z,1009.58
2018-09-20T05:47:11.892Z,1009.56
2018-09-20T05:49:05.214Z,1009.54
2018-09-20T05:50:05.158Z,1009.56
2018-09-20T05:51:57.982Z,1009.54
2018-09-20T05:52:57.938Z,1009.54
2018-09-20T05:54:51.267Z,1009.58
2018-09-20T05:55:51.218Z,1009.59
2018-09-20T05:57:44.519Z,1009.62
2018-09-20T05:58:44.482Z,1009.60
2018-09-20T06:00:37.414Z,1009.63
2018-09-20T06:01:37.257Z,1009.62
2018-09-20T06:03:30.569Z,1009.66
2018-09-20T06:04:30.535Z,1009.62
2018-09-20T06:06:25.714Z,1009.71
2018-09-20T06:07:25.670Z,1009.73
2018-09-20T06:09:18.994Z,1009.76
2018-09-20T06:10:18.953Z,1009.72
2018-09-20T06:12:12.324Z,1009.75
2018-09-20T06:13:12.279Z,1009.78
2018-09-20T06:15:05.539Z,1009.76
2018-09-20T06:16:05.491Z,1009.74
2018-09-20T06:17:58.308Z,1009.76
2018-09-20T06:18:58.268Z,1009.74
2018-09-20T06:20:51.599Z,1009.76
2018-09-20T06:21:51.605Z,1009.73
2018-09-20T06:23:44.845Z,1009.77
2018-09-20T06:24:44.822Z,1009.77
2018-09-20T06:26:38.145Z,1009.81
2018-09-20T06:27:38.140Z,1009.83
2018-09-20T06:29:31.395Z,1009.83
2018-09-20T06:30:31.360Z,1009.83
2018-09-20T06:32:24.200Z,1009.87
2018-09-20T06:33:24.154Z,1009.86
2018-09-20T06:35:17.570Z,1009.91
2018-09-20T06:36:17.434Z,1009.97
2018-09-20T06:38:10.747Z,1010.00
2018-09-20T06:39:10.714Z,1010.01
2018-09-20T06:41:04.088Z,1010.03
2018-09-20T06:42:03.993Z,1010.02
2018-09-20T06:43:57.289Z,1010.00
2018-09-20T06:44:57.250Z,1010.01
2018-09-20T06:46:50.571Z,1009.98
2018-09-20T06:47:50.535Z,1009.98
2018-09-20T06:49:43.834Z,1009.97
2018-09-20T06:50:43.806Z,1009.97
2018-09-20T06:52:37.120Z,1009.99
2018-09-20T06:53:37.075Z,1009.96
2018-09-20T06:55:30.390Z,1009.96
2018-09-20T06:56:30.396Z,1009.97
2018-09-20T06:58:23.680Z,1009.91
2018-09-20T06:59:23.625Z,1009.87
2018-09-20T07:01:16.947Z,1009.83
2018-09-20T07:02:16.906Z,1009.79
2018-09-20T07:04:10.220Z,1009.79
2018-09-20T07:05:10.191Z,1009.73
2018-09-20T07:07:03.521Z,1009.75
2018-09-20T07:08:03.466Z,1009.73
2018-09-20T07:09:56.786Z,1009.71
2018-09-20T07:10:56.746Z,1009.73
2018-09-20T07:12:50.062Z,1009.79
2018-09-20T07:13:50.131Z,1009.79
2018-09-20T07:15:43.332Z,1009.83
2018-09-20T07:16:43.301Z,1009.79
2018-09-20T07:18:36.618Z,1009.80
2018-09-20T07:19:36.567Z,1009.80
2018-09-20T07:21:29.881Z,1009.79
2018-09-20T07:22:29.846Z,1009.81
2018-09-20T07:24:23.182Z,1009.82
2018-09-20T07:25:23.232Z,1009.80
2018-09-20T07:27:16.462Z,1009.82
2018-09-20T07:28:16.432Z,1009.80
2018-09-20T07:30:09.749Z,1009.82
2018-09-20T07:31:09.718Z,1009.81
2018-09-20T07:33:03.037Z,1009.78
2018-09-20T07:34:02.988Z,1009.79
2018-09-20T07:35:56.294Z,1009.79
2018-09-20T07:36:56.272Z,1009.74
2018-09-20T07:38:49.602Z,1009.76
2018-09-20T07:39:49.549Z,1009.70
2018-09-20T07:41:42.872Z,1009.76
2018-09-20T07:42:42.824Z,1009.76
2018-09-20T07:44:36.153Z,1009.78
2018-09-20T07:45:36.107Z,1009.76
2018-09-20T07:47:29.445Z,1009.76
2018-09-20T07:48:29.382Z,1009.75
2018-09-20T07:50:22.696Z,1009.77
2018-09-20T07:51:22.659Z,1009.79
2018-09-20T07:53:16.009Z,1009.78
2018-09-20T07:54:15.952Z,1009.81
2018-09-20T07:56:09.248Z,1009.83
2018-09-20T07:57:09.217Z,1009.84
2018-09-20T07:59:02.546Z,1009.82
2018-09-20T08:00:02.505Z,1009.81
2018-09-20T08:01:55.866Z,1009.80
2018-09-20T08:02:55.780Z,1009.82
2018-09-20T08:04:49.098Z,1009.83
2018-09-20T08:05:49.063Z,1009.87
2018-09-20T08:07:42.379Z,1009.85
2018-09-20T08:08:42.333Z,1009.87
2018-09-20T08:10:35.639Z,1009.90
2018-09-20T08:11:35.615Z,1009.89
2018-09-20T08:13:28.444Z,1009.90
2018-09-20T08:14:28.400Z,1009.88
2018-09-20T08:16:21.703Z,1009.90
2018-09-20T08:17:21.680Z,1009.89
2018-09-20T08:19:15.015Z,1009.95
2018-09-20T08:20:14.955Z,1009.94
2018-09-20T08:22:08.255Z,1009.98
2018-09-20T08:23:08.231Z,1009.95
2018-09-20T08:25:01.549Z,1009.93
2018-09-20T08:26:01.513Z,1009.93
2018-09-20T08:27:54.928Z,1009.97
2018-09-20T08:28:54.790Z,1009.99
2018-09-20T08:30:48.114Z,1010.00
2018-09-20T08:31:48.069Z,1010.00
2018-09-20T08:33:41.399Z,1010.03
2018-09-20T08:34:41.339Z,1010.02
2018-09-20T08:36:34.656Z,1010.02
2018-09-20T08:37:34.669Z,1010.06
2018-09-20T08:39:27.959Z,1010.06
2018-09-20T08:40:27.915Z,1010.07
2018-09-20T08:42:21.272Z,1010.07
2018-09-20T08:43:21.191Z,1010.05
2018-09-20T08:45:14.523Z,1010.07
2018-09-20T08:46:14.480Z,1010.03
2018-09-20T08:48:07.826Z,1010.03
2018-09-20T08:49:07.795Z,1010.03
2018-09-20T08:51:01.173Z,1010.00
2018-09-20T08:52:01.097Z,1009.97
2018-09-20T08:53:54.425Z,1010.04
2018-09-20T08:54:54.375Z,1010.02
2018-09-20T08:56:47.799Z,1010.02
2018-09-20T08:57:47.687Z,1010.02
2018-09-20T08:59:41.043Z,1009.98
2018-09-20T09:00:41.008Z,1009.95
2018-09-20T09:02:34.311Z,1010.00
2018-09-20T09:03:34.275Z,1009.99
2018-09-20T09:05:27.631Z,1009.98
2018-09-20T09:06:27.585Z,1009.98
2018-09-20T09:08:20.921Z,1009.89
2018-09-20T09:09:20.878Z,1009.89
2018-09-20T09:11:15.201Z,1009.84
2018-09-20T09:12:15.181Z,1009.91
2018-09-20T09:14:08.573Z,1009.90
2018-09-20T09:15:08.463Z,1009.89
2018-09-20T09:17:01.854Z,1009.86
2018-09-20T09:18:01.804Z,1009.87
2018-09-20T09:19:55.126Z,1009.85
2018-09-20T09:20:55.078Z,1009.85
2018-09-20T09:22:48.420Z,1009.79
2018-09-20T09:23:48.381Z,1009.79
2018-09-20T09:25:41.691Z,1009.78
2018-09-20T09:26:41.643Z,1009.76
2018-09-20T09:28:35.039Z,1009.77
2018-09-20T09:29:34.946Z,1009.72
2018-09-20T09:31:28.260Z,1009.71
2018-09-20T09:32:28.229Z,1009.74
2018-09-20T09:34:21.557Z,1009.74
2018-09-20T09:35:21.524Z,1009.73
2018-09-20T09:37:14.851Z,1009.74
2018-09-20T09:38:14.812Z,1009.71
2018-09-20T09:40:08.134Z,1009.70
2018-09-20T09:41:08.108Z,1009.70
2018-09-20T09:43:01.423Z,1009.61
2018-09-20T09:44:01.389Z,1009.57
2018-09-20T09:45:54.707Z,1009.59
2018-09-20T09:46:54.674Z,1009.57
2018-09-20T09:48:48.052Z,1010.19
2018-09-20T09:49:47.969Z,1010.25
2018-09-20T09:51:41.299Z,1010.22
2018-09-20T09:52:41.254Z,1010.17
2018-09-20T09:54:34.640Z,1010.18
2018-09-20T09:55:34.564Z,1010.13
2018-09-20T09:57:27.903Z,1010.15
2018-09-20T09:58:27.860Z,1010.14
2018-09-20T10:00:21.198Z,1009.95
2018-09-20T10:01:21.166Z,1009.95
2018-09-20T10:03:14.504Z,1009.93
2018-09-20T10:04:14.479Z,1010.05
2018-09-20T10:06:07.793Z,1009.95
2018-09-20T10:07:07.788Z,1010.02
2018-09-20T10:09:01.129Z,1009.64
2018-09-20T10:10:01.079Z,1009.80
2018-09-20T10:11:54.409Z,1009.91
2018-09-20T10:12:54.400Z,1010.09
2018-09-20T10:14:47.722Z,1010.01
2018-09-20T10:15:47.690Z,1009.79
2018-09-20T10:17:41.021Z,1009.65
2018-09-20T10:18:40.997Z,1009.61
2018-09-20T10:20:34.330Z,1009.89
2018-09-20T10:21:34.310Z,1009.72
2018-09-20T10:23:27.634Z,1009.75
2018-09-20T10:24:27.615Z,1009.65
2018-09-20T10:26:20.936Z,1009.71
2018-09-20T10:27:20.914Z,1009.67
2018-09-20T10:29:14.259Z,1009.49
2018-09-20T10:30:14.217Z,1009.73
2018-09-20T10:32:07.541Z,1009.84
2018-09-20T10:33:07.520Z,1009.81
2018-09-20T10:35:00.881Z,1009.52
2018-09-20T10:36:00.847Z,1009.91
2018-09-20T10:37:54.192Z,1009.72
2018-09-20T10:38:54.165Z,1009.79
2018-09-20T10:40:47.517Z,1009.67
2018-09-20T10:41:47.472Z,1009.57
2018-09-20T10:43:40.807Z,1009.32
2018-09-20T10:44:40.777Z,1009.46
2018-09-20T10:46:34.117Z,1009.50
2018-09-20T10:47:34.092Z,1009.43
2018-09-20T10:49:28.451Z,1009.44
2018-09-20T10:50:28.411Z,1009.72
2018-09-20T10:52:21.760Z,1009.50
2018-09-20T10:53:21.721Z,1009.43
2018-09-20T10:55:15.132Z,1009.53
2018-09-20T10:56:15.033Z,1009.39
2018-09-20T10:58:08.393Z,1009.19
2018-09-20T10:59:08.381Z,1009.29
2018-09-20T11:01:01.809Z,1009.19
2018-09-20T11:02:01.683Z,1009.42
2018-09-20T11:03:56.024Z,1009.29
2018-09-20T11:04:56.002Z,1009.15
2018-09-20T11:06:49.382Z,1009.25
2018-09-20T11:07:49.316Z,1009.41
2018-09-20T11:09:42.672Z,1009.29
2018-09-20T11:10:42.690Z,1009.36
2018-09-20T11:12:36.015Z,1009.39
2018-09-20T11:13:35.975Z,1009.12
2018-09-20T11:15:29.329Z,1008.94
2018-09-20T11:16:29.274Z,1009.10
2018-09-20T11:18:22.608Z,1008.68
2018-09-20T11:19:22.590Z,1008.63
2018-09-20T11:21:16.987Z,1008.65
2018-09-20T11:22:16.923Z,1008.77
2018-09-20T11:24:10.232Z,1009.08
2018-09-20T11:25:10.212Z,1009.21
2018-09-20T11:27:03.564Z,1009.14
2018-09-20T11:28:03.621Z,1009.15
2018-09-20T11:29:57.866Z,1008.98
2018-09-20T11:30:57.829Z,1008.99
2018-09-20T11:32:51.193Z,1008.94
2018-09-20T11:33:51.139Z,1009.03
2018-09-20T11:35:44.497Z,1009.03
2018-09-20T11:36:44.487Z,1009.04
2018-09-20T11:38:37.814Z,1008.91
2018-09-20T11:39:37.773Z,1008.96
2018-09-20T11:41:32.118Z,1008.99
2018-09-20T11:42:32.080Z,1008.92
2018-09-20T11:44:25.451Z,1008.62
2018-09-20T11:45:25.395Z,1008.32
2018-09-20T11:47:18.770Z,1008.92
2018-09-20T11:48:18.722Z,1008.88
2018-09-20T11:50:12.065Z,1008.80
2018-09-20T11:51:12.034Z,1008.89
2018-09-20T11:53:05.396Z,1008.78
2018-09-20T11:54:05.334Z,1008.82
2018-09-20T11:55:58.684Z,1008.84
2018-09-20T11:56:58.650Z,1008.81
2018-09-20T11:58:52.021Z,1008.91
2018-09-20T11:59:51.966Z,1008.72
2018-09-20T12:01:45.301Z,1008.70
2018-09-20T12:02:45.271Z,1008.81
2018-09-20T12:04:38.622Z,1008.81
2018-09-20T12:05:38.619Z,1008.79
2018-09-20T12:07:31.971Z,1008.65
2018-09-20T12:08:31.910Z,1008.65
2018-09-20T12:10:26.260Z,1008.58
2018-09-20T12:11:26.232Z,1008.37
2018-09-20T12:13:19.591Z,1008.51
2018-09-20T12:14:19.549Z,1008.37
2018-09-20T12:16:13.905Z,1008.60
2018-09-20T12:17:13.861Z,1008.65
2018-09-20T12:19:07.221Z,1008.57
2018-09-20T12:20:07.243Z,1008.51
2018-09-20T12:22:01.528Z,1008.42
2018-09-20T12:23:01.471Z,1008.35
2018-09-20T12:24:54.846Z,1008.31
2018-09-20T12:25:54.845Z,1008.23
2018-09-20T12:27:48.121Z,1008.27
2018-09-20T12:28:48.085Z,1008.25
2018-09-20T12:30:41.432Z,1008.20
2018-09-20T12:31:41.441Z,1008.08
2018-09-20T12:33:34.743Z,1008.07
2018-09-20T12:34:34.713Z,1008.10
2018-09-20T12:36:28.073Z,1008.03
2018-09-20T12:37:28.036Z,1008.05
2018-09-20T12:39:21.371Z,1008.02
2018-09-20T12:40:21.342Z,1007.98
2018-09-20T12:42:14.667Z,1008.04
2018-09-20T12:43:14.667Z,1008.06
2018-09-20T12:45:08.981Z,1007.99
2018-09-20T12:46:08.937Z,1007.96
2018-09-20T12:48:02.305Z,1007.88
2018-09-20T12:49:02.246Z,1007.93
2018-09-20T12:50:55.594Z,1007.90
2018-09-20T12:51:55.553Z,1007.92
2018-09-20T12:53:48.883Z,1007.88
2018-09-20T12:54:48.959Z,1007.85
2018-09-20T12:56:42.213Z,1007.93
2018-09-20T12:57:42.174Z,1007.83
2018-09-20T12:59:35.503Z,1007.79
2018-09-20T13:00:35.481Z,1007.82
2018-09-20T13:02:28.833Z,1007.75
2018-09-20T13:03:28.774Z,1007.74
2018-09-20T13:05:22.112Z,1007.72
2018-09-20T13:06:22.077Z,1007.66
2018-09-20T13:08:15.394Z,1007.67
2018-09-20T13:09:15.387Z,1007.69
2018-09-20T13:11:08.758Z,1007.65
2018-09-20T13:12:08.689Z,1007.61
2018-09-20T13:14:03.004Z,1007.60
2018-09-20T13:15:02.964Z,1007.57
2018-09-20T13:16:56.312Z,1007.51
2018-09-20T13:17:56.263Z,1007.48
2018-09-20T13:19:50.608Z,1007.46
2018-09-20T13:20:50.569Z,1007.39
2018-09-20T13:22:43.918Z,1007.45
2018-09-20T13:23:43.878Z,1007.54
2018-09-20T13:25:37.235Z,1007.44
2018-09-20T13:26:37.173Z,1007.47
2018-09-20T13:28:30.519Z,1007.46
2018-09-20T13:29:30.478Z,1007.40
2018-09-20T13:31:23.819Z,1007.40
2018-09-20T13:32:23.774Z,1007.44
2018-09-20T13:34:17.089Z,1007.44
2018-09-20T13:35:17.089Z,1007.44
2018-09-20T13:37:11.461Z,1007.37
2018-09-20T13:38:11.360Z,1007.38
2018-09-20T13:40:04.687Z,1007.38
2018-09-20T13:41:04.663Z,1007.40
2018-09-20T13:42:57.990Z,1007.40
2018-09-20T13:43:57.975Z,1007.36
2018-09-20T13:45:51.291Z,1007.32
2018-09-20T13:46:51.260Z,1007.32
2018-09-20T13:48:44.704Z,1007.28
2018-09-20T13:49:44.563Z,1007.22
2018-09-20T13:51:37.934Z,1007.23
2018-09-20T13:52:37.898Z,1007.26
2018-09-20T13:54:31.231Z,1007.30
2018-09-20T13:55:31.198Z,1007.28
2018-09-20T13:57:24.540Z,1007.27
2018-09-20T13:58:24.495Z,1007.29
2018-09-20T14:00:17.848Z,1007.27
2018-09-20T14:01:17.824Z,1007.22
2018-09-20T14:03:11.155Z,1007.23
2018-09-20T14:04:11.110Z,1007.18
2018-09-20T14:06:04.439Z,1007.12
2018-09-20T14:07:04.411Z,1007.15
2018-09-20T14:08:57.752Z,1007.11
2018-09-20T14:09:57.751Z,1007.07
2018-09-20T14:11:51.065Z,1007.03
2018-09-20T14:12:51.015Z,1007.02
2018-09-20T14:14:44.380Z,1007.05
2018-09-20T14:15:44.361Z,1007.04
2018-09-20T14:17:37.691Z,1007.00
2018-09-20T14:18:37.656Z,1006.96
2018-09-20T14:20:30.974Z,1006.91
2018-09-20T14:21:30.961Z,1006.93
2018-09-20T14:23:24.336Z,1006.87
2018-09-20T14:24:24.274Z,1006.91
2018-09-20T14:26:17.604Z,1006.90
2018-09-20T14:27:17.629Z,1006.84
2018-09-20T14:29:10.925Z,1006.78
2018-09-20T14:30:10.889Z,1006.77
2018-09-20T14:32:04.241Z,1006.73
2018-09-20T14:33:04.213Z,1006.72
2018-09-20T14:34:57.555Z,1006.64
2018-09-20T14:35:57.502Z,1006.62
2018-09-20T14:37:50.842Z,1006.61
2018-09-20T14:38:50.813Z,1006.61
2018-09-20T14:40:44.146Z,1006.57
2018-09-20T14:41:44.117Z,1006.52
2018-09-20T14:43:37.456Z,1006.49
2018-09-20T14:44:37.426Z,1006.46
2018-09-20T14:46:30.750Z,1006.52
2018-09-20T14:47:30.755Z,1006.55
2018-09-20T14:49:24.100Z,1006.45
2018-09-20T14:50:24.070Z,1006.43
2018-09-20T14:52:17.396Z,1006.43
2018-09-20T14:53:17.362Z,1006.39
2018-09-20T14:55:11.710Z,1006.38
2018-09-20T14:56:11.664Z,1006.38
2018-09-20T14:58:05.007Z,1006.37
2018-09-20T14:59:05.003Z,1006.34
2018-09-20T15:00:58.328Z,1006.29
2018-09-20T15:01:58.298Z,1006.29
2018-09-20T15:03:51.636Z,1006.25
2018-09-20T15:04:51.597Z,1006.24
2018-09-20T15:06:44.924Z,1006.24
2018-09-20T15:07:44.884Z,1006.17
2018-09-20T15:09:38.253Z,1006.14
2018-09-20T15:10:38.194Z,1006.12
2018-09-20T15:12:31.509Z,1006.12
2018-09-20T15:13:31.509Z,1006.09
2018-09-20T15:15:24.868Z,1006.07
2018-09-20T15:16:24.813Z,1006.08
2018-09-20T15:18:18.152Z,1006.01
2018-09-20T15:19:18.117Z,1006.02
2018-09-20T15:21:11.463Z,1006.02
2018-09-20T15:22:11.434Z,1006.01
2018-09-20T15:24:04.763Z,1005.95
2018-09-20T15:25:04.753Z,1005.95
2018-09-20T15:26:58.063Z,1005.94
2018-09-20T15:27:58.024Z,1005.90
2018-09-20T15:29:51.370Z,1005.88
2018-09-20T15:30:51.345Z,1005.83
2018-09-20T15:32:44.655Z,1005.85
2018-09-20T15:33:44.614Z,1005.81
2018-09-20T15:35:37.951Z,1005.82
2018-09-20T15:36:37.955Z,1005.84
2018-09-20T15:38:31.250Z,1005.87
2018-09-20T15:39:31.240Z,1005.80
2018-09-20T15:41:24.570Z,1005.75
2018-09-20T15:42:24.527Z,1005.74
2018-09-20T15:44:17.850Z,1005.64
2018-09-20T15:45:17.824Z,1005.63
2018-09-20T15:47:11.215Z,1005.61
2018-09-20T15:48:11.126Z,1005.57
2018-09-20T15:50:04.470Z,1005.59
2018-09-20T15:51:04.427Z,1005.59
2018-09-20T15:52:57.765Z,1005.54
2018-09-20T15:53:57.752Z,1005.58
2018-09-20T15:55:51.071Z,1005.55
2018-09-20T15:56:51.035Z,1005.50
2018-09-20T15:58:44.363Z,1005.57
2018-09-20T15:59:44.344Z,1005.54
2018-09-20T16:01:37.663Z,1005.51
2018-09-20T16:02:37.628Z,1005.55
2018-09-20T16:04:30.955Z,1005.51
2018-09-20T16:05:30.928Z,1005.49
2018-09-20T16:07:24.289Z,1005.48
2018-09-20T16:08:24.243Z,1005.49
2018-09-20T16:10:17.562Z,1005.50
2018-09-20T16:11:17.531Z,1005.46
2018-09-20T16:13:10.868Z,1005.42
2018-09-20T16:14:10.833Z,1005.46
2018-09-20T16:16:04.202Z,1005.43
2018-09-20T16:17:04.130Z,1005.41
2018-09-20T16:18:57.463Z,1005.43
2018-09-20T16:19:57.424Z,1005.39
2018-09-20T16:21:50.766Z,1005.41
2018-09-20T16:22:50.726Z,1005.35
2018-09-20T16:24:44.051Z,1005.36
2018-09-20T16:25:44.017Z,1005.30
2018-09-20T16:27:37.359Z,1005.27
2018-09-20T16:28:37.303Z,1005.24
2018-09-20T16:30:30.632Z,1005.21
2018-09-20T16:31:30.630Z,1005.23
2018-09-20T16:33:23.943Z,1005.16
2018-09-20T16:34:23.889Z,1005.18
2018-09-20T16:36:17.217Z,1005.12
2018-09-20T16:37:17.192Z,1005.12
2018-09-20T16:39:10.527Z,1005.08
2018-09-20T16:40:10.493Z,1005.14
2018-09-20T16:42:03.843Z,1005.13
2018-09-20T16:43:03.832Z,1005.09
2018-09-20T16:44:57.157Z,1005.08
2018-09-20T16:45:57.124Z,1005.02
2018-09-20T16:47:50.468Z,1004.99
2018-09-20T16:48:50.433Z,1004.97
2018-09-20T16:50:43.759Z,1004.98
2018-09-20T16:51:43.723Z,1004.97
2018-09-20T16:53:37.059Z,1004.97
2018-09-20T16:54:37.019Z,1004.99
2018-09-20T16:56:30.360Z,1004.93
2018-09-20T16:57:30.325Z,1004.94
2018-09-20T16:59:23.673Z,1004.91
2018-09-20T17:00:23.618Z,1004.91
2018-09-20T17:02:16.970Z,1004.91
2018-09-20T17:03:16.944Z,1004.88
2018-09-20T17:05:10.348Z,1004.86
2018-09-20T17:06:10.231Z,1004.89
2018-09-20T17:08:03.549Z,1004.82
2018-09-20T17:09:03.559Z,1004.83
2018-09-20T17:10:56.842Z,1004.82
2018-09-20T17:11:56.818Z,1004.80
2018-09-20T17:13:50.179Z,1004.85
2018-09-20T17:14:50.142Z,1004.84
2018-09-20T17:16:43.531Z,1004.86
2018-09-20T17:17:43.419Z,1004.86
2018-09-20T17:19:36.756Z,1004.85
2018-09-20T17:20:36.722Z,1004.83
2018-09-20T17:22:30.030Z,1004.86
2018-09-20T17:23:30.005Z,1004.83
2018-09-20T17:25:23.375Z,1004.82
2018-09-20T17:26:23.305Z,1004.82
2018-09-20T17:28:16.616Z,1004.77